Time;durP1;ratioP1;P1;durP2;ratioP2;P2;SDS_P1;SDS_P2;PMS_P1;PMS_P2;Temp;Humidity;BMP_temperature;BMP_pressure;BME280_temperature;BME280_humidity;BME280_pressure;Samples;Min_cycle;Max_cycle;Signal;HPM_P1;HPM_P2
2023/06/27 00:01:06;;;;;;;6.03;1.50;;;;;;;;;;5047332;28;20021;-72
2023/06/27 00:03:33;;;;;;;2.45;1.52;;;;;;;;;;5046712;28;20025;-72
2023/06/27 00:06:00;;;;;;;6.70;1.95;;;;;;;;;;5046406;28;20028;-72
2023/06/27 00:08:27;;;;;;;3.05;1.60;;;;;;;;;;5046939;28;20044;-72
2023/06/27 00:10:53;;;;;;;6.07;1.88;;;;;;;;;;5043750;28;20026;-72
2023/06/27 00:13:18;;;;;;;6.05;1.73;;;;;;;;;;5048673;28;20083;-72
2023/06/27 00:15:43;;;;;;;3.60;1.57;;;;;;;;;;5045816;28;20022;-73
2023/06/27 00:18:08;;;;;;;3.78;1.70;;;;;;;;;;5048341;28;20314;-72
2023/06/27 00:20:34;;;;;;;9.35;1.42;;;;;;;;;;5048416;28;20071;-72
2023/06/27 00:23:16;;;;;;;3.00;1.55;;;;;;;;;;5048768;28;20477;-72
2023/06/27 00:25:41;;;;;;;5.43;1.70;;;;;;;;;;5046949;28;20017;-72
2023/06/27 00:28:06;;;;;;;5.33;1.77;;;;;;;;;;5046808;28;20021;-72
2023/06/27 00:30:31;;;;;;;4.47;1.70;;;;;;;;;;5047457;28;20823;-72
2023/06/27 00:32:57;;;;;;;6.97;1.87;;;;;;;;;;5045488;28;20271;-72
2023/06/27 00:35:22;;;;;;;2.75;1.80;;;;;;;;;;5045890;28;20433;-72
2023/06/27 00:37:47;;;;;;;2.33;1.60;;;;;;;;;;5044525;28;20017;-72
2023/06/27 00:40:13;;;;;;;6.17;2.00;;;;;;;;;;5049292;28;20268;-72
2023/06/27 00:42:38;;;;;;;3.42;1.80;;;;;;;;;;5047542;28;20768;-73
2023/06/27 00:45:04;;;;;;;5.55;1.63;;;;;;;;;;5048799;28;20023;-72
2023/06/27 00:47:29;;;;;;;4.68;2.10;;;;;;;;;;5047503;28;20017;-72
2023/06/27 00:49:54;;;;;;;5.72;1.98;;;;;;;;;;5051244;28;20111;-72
2023/06/27 00:52:19;;;;;;;2.55;1.50;;;;;;;;;;5049965;28;20052;-72
2023/06/27 00:54:45;;;;;;;3.58;1.50;;;;;;;;;;5050523;28;20029;-72
2023/06/27 00:57:11;;;;;;;4.03;1.73;;;;;;;;;;5052750;28;20025;-72
2023/06/27 00:59:37;;;;;;;5.70;1.63;;;;;;;;;;5051013;28;20032;-72
2023/06/27 01:02:03;;;;;;;9.05;1.88;;;;;;;;;;5047683;28;20017;-72
2023/06/27 01:04:28;;;;;;;5.13;1.50;;;;;;;;;;5051678;28;20436;-72
2023/06/27 01:07:00;;;;;;;6.05;1.65;;;;;;;;;;5050426;28;20032;-72
2023/06/27 01:09:28;;;;;;;4.38;1.73;;;;;;;;;;5051884;28;20021;-72
2023/06/27 01:12:15;;;;;;;7.45;1.88;;;;;;;;;;5049647;28;20037;-72
2023/06/27 01:14:43;;;;;;;3.53;1.38;;;;;;;;;;5051435;28;20059;-73
2023/06/27 01:17:08;;;;;;;6.25;1.80;;;;;;;;;;5047550;28;21371;-72
2023/06/27 01:19:34;;;;;;;3.40;1.35;;;;;;;;;;5048758;28;20048;-72
2023/06/27 01:22:09;;;;;;;4.72;1.73;;;;;;;;;;5049039;28;20021;-72
2023/06/27 01:24:36;;;;;;;6.28;1.63;;;;;;;;;;5045772;28;20423;-73
2023/06/27 01:27:02;;;;;;;4.28;1.60;;;;;;;;;;5047510;28;20032;-73
2023/06/27 01:29:29;;;;;;;6.18;1.85;;;;;;;;;;5048440;28;20374;-73
2023/06/27 01:31:58;;;;;;;5.45;1.63;;;;;;;;;;5044754;28;20097;-72
2023/06/27 01:34:34;;;;;;;7.20;1.77;;;;;;;;;;5050313;28;20036;-73
2023/06/27 01:37:08;;;;;;;2.97;1.85;;;;;;;;;;5049167;28;20044;-72
2023/06/27 01:40:06;;;;;;;2.38;1.15;;;;;;;;;;5047500;28;20104;-72
2023/06/27 01:42:34;;;;;;;8.00;1.75;;;;;;;;;;5035003;28;20021;-72
2023/06/27 01:45:01;;;;;;;6.80;1.42;;;;;;;;;;5049051;28;20624;-73
2023/06/27 01:47:26;;;;;;;4.28;1.90;;;;;;;;;;5047218;28;20025;-72
2023/06/27 01:49:52;;;;;;;5.30;1.58;;;;;;;;;;5051324;28;20062;-72
2023/06/27 01:52:19;;;;;;;3.67;1.90;;;;;;;;;;5049366;28;20019;-73
2023/06/27 01:54:44;;;;;;;5.63;1.55;;;;;;;;;;5049304;28;20259;-72
2023/06/27 01:57:10;;;;;;;4.95;1.63;;;;;;;;;;5048817;28;20020;-72
2023/06/27 01:59:35;;;;;;;7.05;1.90;;;;;;;;;;5049352;28;20220;-73
2023/06/27 02:02:00;;;;;;;4.10;1.83;;;;;;;;;;5050652;28;20025;-72
2023/06/27 02:04:26;;;;;;;5.55;1.80;;;;;;;;;;5047185;28;20021;-72
2023/06/27 02:06:51;;;;;;;3.80;1.60;;;;;;;;;;5049665;28;20017;-72
2023/06/27 02:09:16;;;;;;;4.43;1.47;;;;;;;;;;5050145;28;20282;-73
2023/06/27 02:11:41;;;;;;;3.53;1.60;;;;;;;;;;5051625;28;20744;-73
2023/06/27 02:14:06;;;;;;;3.73;1.50;;;;;;;;;;5047916;28;20275;-73
2023/06/27 02:16:31;;;;;;;7.93;1.83;;;;;;;;;;5050657;28;20275;-73
2023/06/27 02:18:57;;;;;;;4.40;1.60;;;;;;;;;;5049771;28;20782;-73
2023/06/27 02:21:22;;;;;;;4.65;1.50;;;;;;;;;;5051182;28;20313;-72
2023/06/27 02:23:47;;;;;;;3.97;1.73;;;;;;;;;;5050915;28;20028;-72
2023/06/27 02:26:12;;;;;;;4.57;1.42;;;;;;;;;;5050255;28;20264;-72
2023/06/27 02:28:38;;;;;;;5.90;1.80;;;;;;;;;;5049178;28;20029;-72
2023/06/27 02:31:03;;;;;;;3.83;1.67;;;;;;;;;;5051885;28;20309;-72
2023/06/27 02:33:28;;;;;;;6.73;1.50;;;;;;;;;;5049556;28;20637;-72
2023/06/27 02:35:53;;;;;;;5.67;2.30;;;;;;;;;;5050436;28;20283;-72
2023/06/27 02:38:18;;;;;;;4.13;1.77;;;;;;;;;;5048678;28;20247;-73
2023/06/27 02:40:43;;;;;;;6.10;1.70;;;;;;;;;;5049348;28;20641;-73
2023/06/27 02:43:09;;;;;;;4.33;1.70;;;;;;;;;;5046934;28;20276;-72
2023/06/27 02:45:35;;;;;;;5.83;1.53;;;;;;;;;;5046058;28;20336;-72
2023/06/27 02:48:00;;;;;;;11.68;2.65;;;;;;;;;;5048188;28;20705;-72
2023/06/27 02:50:25;;;;;;;4.65;1.67;;;;;;;;;;5049368;28;20021;-72
2023/06/27 02:52:51;;;;;;;7.23;1.73;;;;;;;;;;5048449;28;20127;-73
2023/06/27 02:55:16;;;;;;;4.75;1.98;;;;;;;;;;5049307;28;20270;-72
2023/06/27 02:57:41;;;;;;;5.37;1.87;;;;;;;;;;5049042;28;20032;-72
2023/06/27 03:00:07;;;;;;;5.63;2.00;;;;;;;;;;5046091;28;20764;-72
2023/06/27 03:02:32;;;;;;;4.32;1.92;;;;;;;;;;5049018;28;20636;-72
2023/06/27 03:04:58;;;;;;;5.82;1.60;;;;;;;;;;5049374;28;20017;-72
2023/06/27 03:07:23;;;;;;;2.88;1.67;;;;;;;;;;5046708;28;20049;-72
2023/06/27 03:09:48;;;;;;;4.67;2.00;;;;;;;;;;5048582;28;20079;-72
2023/06/27 03:12:13;;;;;;;3.00;1.60;;;;;;;;;;5045573;28;20732;-73
2023/06/27 03:14:38;;;;;;;6.10;1.90;;;;;;;;;;5047342;28;20267;-72
2023/06/27 03:17:04;;;;;;;7.18;2.40;;;;;;;;;;5048164;28;20322;-72
2023/06/27 03:19:29;;;;;;;7.07;2.15;;;;;;;;;;5047460;28;20024;-72
2023/06/27 03:21:54;;;;;;;4.95;1.90;;;;;;;;;;5049275;28;20019;-72
2023/06/27 03:24:19;;;;;;;5.80;2.17;;;;;;;;;;5045350;28;20017;-72
2023/06/27 03:26:44;;;;;;;5.10;1.90;;;;;;;;;;5048376;28;20359;-72
2023/06/27 03:29:09;;;;;;;3.20;2.03;;;;;;;;;;5047672;28;20341;-73
2023/06/27 03:31:35;;;;;;;5.00;1.80;;;;;;;;;;5046883;28;20287;-72
2023/06/27 03:34:00;;;;;;;4.22;1.33;;;;;;;;;;5049261;28;20268;-73
2023/06/27 03:36:25;;;;;;;9.40;2.33;;;;;;;;;;5046654;28;20021;-72
2023/06/27 03:38:51;;;;;;;7.95;2.17;;;;;;;;;;5046622;28;20389;-72
2023/06/27 03:41:16;;;;;;;5.63;1.75;;;;;;;;;;5047911;28;20525;-72
2023/06/27 03:43:41;;;;;;;4.97;1.80;;;;;;;;;;5048876;28;20025;-72
2023/06/27 03:46:07;;;;;;;6.80;2.10;;;;;;;;;;5048454;28;20017;-72
2023/06/27 03:48:32;;;;;;;4.47;1.90;;;;;;;;;;5043201;28;20266;-72
2023/06/27 03:50:57;;;;;;;4.40;1.90;;;;;;;;;;5048235;28;20056;-72
2023/06/27 03:53:23;;;;;;;4.00;1.97;;;;;;;;;;5049695;28;20640;-72
2023/06/27 03:55:48;;;;;;;5.93;2.50;;;;;;;;;;5045477;28;20333;-72
2023/06/27 03:58:13;;;;;;;11.45;3.03;;;;;;;;;;5046681;28;20259;-73
2023/06/27 04:00:41;;;;;;;10.18;2.00;;;;;;;;;;5046349;28;20025;-72
2023/06/27 04:03:06;;;;;;;7.95;2.08;;;;;;;;;;5048241;28;20086;-73
2023/06/27 04:05:31;;;;;;;4.57;2.20;;;;;;;;;;5048538;28;20013;-72
2023/06/27 04:07:56;;;;;;;7.80;1.92;;;;;;;;;;5048122;28;20275;-72
2023/06/27 04:10:21;;;;;;;2.70;1.60;;;;;;;;;;5041264;28;20036;-72
2023/06/27 04:12:47;;;;;;;4.20;1.90;;;;;;;;;;5042249;28;20282;-73
2023/06/27 04:15:12;;;;;;;6.18;2.25;;;;;;;;;;5046514;28;21807;-73
2023/06/27 04:17:37;;;;;;;3.38;1.98;;;;;;;;;;5047418;28;20009;-72
2023/06/27 04:20:03;;;;;;;7.17;2.00;;;;;;;;;;5051034;28;20021;-73
2023/06/27 04:22:28;;;;;;;9.98;1.95;;;;;;;;;;5053209;28;20243;-72
2023/06/27 04:24:53;;;;;;;6.57;1.97;;;;;;;;;;5051546;28;20389;-72
2023/06/27 04:27:19;;;;;;;3.80;2.08;;;;;;;;;;5052663;28;20287;-72
2023/06/27 04:29:44;;;;;;;7.38;2.10;;;;;;;;;;5050766;28;20363;-72
2023/06/27 04:32:09;;;;;;;6.23;1.90;;;;;;;;;;5052877;28;20013;-73
2023/06/27 04:34:36;;;;;;;4.00;1.63;;;;;;;;;;5052466;28;20295;-72
2023/06/27 04:37:02;;;;;;;3.90;2.00;;;;;;;;;;5049821;28;20325;-72
2023/06/27 04:39:27;;;;;;;10.13;2.35;;;;;;;;;;5051795;28;20036;-72
2023/06/27 04:41:52;;;;;;;11.33;2.40;;;;;;;;;;5052348;28;20021;-72
2023/06/27 04:44:20;;;;;;;4.27;1.70;;;;;;;;;;5050524;28;20345;-72
2023/06/27 04:46:46;;;;;;;4.38;2.13;;;;;;;;;;5051179;28;20261;-72
2023/06/27 04:49:11;;;;;;;4.77;2.10;;;;;;;;;;5050801;28;20021;-72
2023/06/27 04:51:36;;;;;;;16.98;2.88;;;;;;;;;;5047940;28;20744;-72
2023/06/27 04:54:01;;;;;;;10.03;2.17;;;;;;;;;;5049100;28;20053;-72
2023/06/27 04:56:27;;;;;;;3.90;1.93;;;;;;;;;;5049985;28;20679;-72
2023/06/27 04:58:52;;;;;;;7.88;2.35;;;;;;;;;;5046111;28;20267;-72
2023/06/27 05:01:18;;;;;;;8.00;2.47;;;;;;;;;;5049850;28;20013;-72
2023/06/27 05:03:43;;;;;;;3.50;2.20;;;;;;;;;;5050777;28;20021;-73
2023/06/27 05:06:08;;;;;;;3.70;2.37;;;;;;;;;;5052412;28;20029;-72
2023/06/27 05:08:35;;;;;;;5.70;2.95;;;;;;;;;;5050977;28;20345;-72
2023/06/27 05:11:00;;;;;;;7.68;2.25;;;;;;;;;;5046791;28;20090;-72
2023/06/27 05:13:25;;;;;;;7.88;2.72;;;;;;;;;;5048329;28;20029;-72
2023/06/27 05:15:50;;;;;;;5.27;2.50;;;;;;;;;;5049263;28;20017;-73
2023/06/27 05:18:16;;;;;;;8.63;2.60;;;;;;;;;;5048993;28;20267;-73
2023/06/27 05:20:41;;;;;;;8.83;2.73;;;;;;;;;;5048153;28;20166;-72
2023/06/27 05:23:06;;;;;;;4.18;2.47;;;;;;;;;;5049875;28;20275;-72
2023/06/27 05:25:32;;;;;;;8.52;3.20;;;;;;;;;;5051259;28;20021;-72
2023/06/27 05:27:57;;;;;;;6.55;2.72;;;;;;;;;;5048479;28;20039;-72
2023/06/27 05:30:22;;;;;;;9.50;3.22;;;;;;;;;;5045952;28;20029;-72
2023/06/27 05:32:48;;;;;;;6.40;2.63;;;;;;;;;;5046900;28;20021;-73
2023/06/27 05:35:13;;;;;;;6.80;2.92;;;;;;;;;;5047231;28;20271;-72
2023/06/27 05:37:39;;;;;;;8.32;2.83;;;;;;;;;;5043683;28;20051;-72
2023/06/27 05:40:04;;;;;;;8.50;2.63;;;;;;;;;;5047429;28;20355;-72
2023/06/27 05:42:30;;;;;;;10.05;3.47;;;;;;;;;;5042929;28;20020;-72
2023/06/27 05:44:55;;;;;;;12.57;2.77;;;;;;;;;;5046563;28;20028;-72
2023/06/27 05:47:20;;;;;;;9.90;2.95;;;;;;;;;;5046805;28;20764;-73
2023/06/27 05:49:45;;;;;;;8.43;2.42;;;;;;;;;;5044925;28;20032;-71
2023/06/27 05:52:10;;;;;;;6.50;2.45;;;;;;;;;;5045744;28;20017;-71
2023/06/27 05:54:36;;;;;;;12.33;2.57;;;;;;;;;;5046701;28;20127;-73
2023/06/27 05:57:01;;;;;;;7.57;2.57;;;;;;;;;;5048153;28;20674;-70
2023/06/27 05:59:26;;;;;;;5.87;1.67;;;;;;;;;;5048313;28;20291;-71
2023/06/27 06:01:51;;;;;;;6.13;2.93;;;;;;;;;;5048187;28;20255;-70
2023/06/27 06:04:16;;;;;;;13.00;2.90;;;;;;;;;;5047393;28;20314;-71
2023/06/27 06:06:42;;;;;;;9.63;2.60;;;;;;;;;;5049558;28;20267;-71
2023/06/27 06:09:07;;;;;;;9.00;2.30;;;;;;;;;;5045802;28;20278;-71
2023/06/27 06:11:36;;;;;;;5.95;2.72;;;;;;;;;;5048307;28;20097;-71
2023/06/27 06:14:02;;;;;;;13.80;2.67;;;;;;;;;;5048286;28;20017;-71
2023/06/27 06:16:27;;;;;;;13.48;3.30;;;;;;;;;;5051439;28;20027;-70
2023/06/27 06:18:53;;;;;;;10.20;3.50;;;;;;;;;;5046073;28;20012;-71
2023/06/27 06:21:18;;;;;;;17.65;3.95;;;;;;;;;;5048595;28;20025;-71
2023/06/27 06:23:43;;;;;;;15.65;3.58;;;;;;;;;;5050413;28;20394;-70
2023/06/27 06:26:08;;;;;;;14.68;3.88;;;;;;;;;;5049674;28;20032;-70
2023/06/27 06:28:34;;;;;;;11.35;4.05;;;;;;;;;;5044790;28;20059;-70
2023/06/27 06:30:59;;;;;;;12.63;3.97;;;;;;;;;;5046182;28;20025;-71
2023/06/27 06:33:25;;;;;;;17.83;4.10;;;;;;;;;;5049247;28;20287;-70
2023/06/27 06:35:51;;;;;;;12.90;3.72;;;;;;;;;;5050207;28;20283;-70
2023/06/27 06:38:16;;;;;;;17.25;3.35;;;;;;;;;;5048922;28;20021;-70
2023/06/27 06:40:42;;;;;;;17.73;3.88;;;;;;;;;;5046351;28;20466;-71
2023/06/27 06:43:07;;;;;;;15.27;3.80;;;;;;;;;;5047392;28;20120;-70
2023/06/27 06:45:32;;;;;;;17.43;4.13;;;;;;;;;;5049406;28;20033;-70
2023/06/27 06:47:59;;;;;;;10.23;3.45;;;;;;;;;;5048830;28;20271;-70
2023/06/27 06:50:24;;;;;;;14.35;3.20;;;;;;;;;;5043824;28;20032;-73
2023/06/27 06:52:49;;;;;;;16.33;3.20;;;;;;;;;;5047239;28;20021;-71
2023/06/27 06:55:14;;;;;;;14.97;3.60;;;;;;;;;;5043357;28;20035;-71
2023/06/27 06:57:40;;;;;;;14.20;3.40;;;;;;;;;;5046473;28;20396;-71
2023/06/27 07:00:05;;;;;;;8.02;2.40;;;;;;;;;;5047387;28;20315;-70
2023/06/27 07:02:30;;;;;;;12.40;3.15;;;;;;;;;;5051376;28;20052;-71
2023/06/27 07:04:55;;;;;;;13.98;3.53;;;;;;;;;;5048931;28;20016;-71
2023/06/27 07:07:23;;;;;;;15.57;3.10;;;;;;;;;;5047525;28;20020;-70
2023/06/27 07:09:48;;;;;;;12.88;3.13;;;;;;;;;;5046966;28;20271;-71
2023/06/27 07:12:13;;;;;;;23.75;3.67;;;;;;;;;;5044734;28;20063;-71
2023/06/27 07:14:38;;;;;;;16.57;3.60;;;;;;;;;;5039558;28;20029;-71
2023/06/27 07:17:04;;;;;;;11.43;2.40;;;;;;;;;;5039902;28;20275;-70
2023/06/27 07:19:29;;;;;;;14.88;3.22;;;;;;;;;;5046322;28;20040;-71
2023/06/27 07:21:54;;;;;;;14.77;3.57;;;;;;;;;;5048463;28;20017;-71
2023/06/27 07:24:19;;;;;;;18.93;3.40;;;;;;;;;;5049828;28;20598;-71
2023/06/27 07:26:44;;;;;;;16.27;3.10;;;;;;;;;;5048963;28;20767;-71
2023/06/27 07:29:10;;;;;;;22.63;3.60;;;;;;;;;;5045198;28;20279;-71
2023/06/27 07:31:35;;;;;;;16.63;4.35;;;;;;;;;;5044902;28;20317;-71
2023/06/27 07:34:01;;;;;;;14.23;3.47;;;;;;;;;;5048511;28;20091;-70
2023/06/27 07:36:27;;;;;;;17.48;4.57;;;;;;;;;;5048897;28;20732;-70
2023/06/27 07:38:52;;;;;;;14.57;3.53;;;;;;;;;;5048637;28;20489;-71
2023/06/27 07:41:18;;;;;;;18.13;2.80;;;;;;;;;;5043386;28;20028;-70
2023/06/27 07:43:43;;;;;;;16.73;3.47;;;;;;;;;;5041683;28;20275;-71
2023/06/27 07:46:08;;;;;;;14.23;3.15;;;;;;;;;;5046495;28;20291;-71
2023/06/27 07:48:33;;;;;;;23.87;3.10;;;;;;;;;;5049901;28;20012;-71
2023/06/27 07:50:58;;;;;;;21.80;3.37;;;;;;;;;;5045892;28;20361;-71
2023/06/27 07:53:23;;;;;;;18.73;3.10;;;;;;;;;;5045645;28;20046;-72
2023/06/27 07:55:49;;;;;;;14.93;3.37;;;;;;;;;;5054006;28;20704;-71
2023/06/27 07:58:14;;;;;;;11.50;2.70;;;;;;;;;;5049799;28;20949;-71
2023/06/27 08:00:39;;;;;;;12.90;2.80;;;;;;;;;;5051298;28;20366;-71
2023/06/27 08:03:04;;;;;;;15.07;3.00;;;;;;;;;;5051412;28;20017;-71
2023/06/27 08:05:34;;;;;;;13.60;3.17;;;;;;;;;;5051359;28;20044;-71
2023/06/27 08:07:59;;;;;;;16.75;2.67;;;;;;;;;;5053735;28;20013;-71
2023/06/27 08:10:25;;;;;;;16.20;2.80;;;;;;;;;;5051379;28;20032;-71
2023/06/27 08:12:50;;;;;;;14.55;3.75;;;;;;;;;;5051419;28;20043;-71
2023/06/27 08:15:16;;;;;;;12.15;3.05;;;;;;;;;;5049926;28;20478;-71
2023/06/27 08:17:41;;;;;;;10.97;3.10;;;;;;;;;;5053859;28;20075;-71
2023/06/27 08:20:07;;;;;;;15.43;3.10;;;;;;;;;;5053286;28;20545;-71
2023/06/27 08:22:32;;;;;;;18.80;2.90;;;;;;;;;;5053594;28;20041;-71
2023/06/27 08:24:57;;;;;;;13.07;2.80;;;;;;;;;;5052176;28;20056;-71
2023/06/27 08:27:23;;;;;;;11.17;3.40;;;;;;;;;;5051862;28;20271;-71
2023/06/27 08:29:49;;;;;;;18.42;2.78;;;;;;;;;;5053159;28;20617;-71
2023/06/27 08:32:14;;;;;;;12.18;2.58;;;;;;;;;;5051420;28;20112;-71
2023/06/27 08:34:41;;;;;;;15.60;3.10;;;;;;;;;;5052352;28;20106;-71
2023/06/27 08:37:06;;;;;;;10.75;2.63;;;;;;;;;;5050336;28;20079;-71
2023/06/27 08:39:32;;;;;;;17.77;2.57;;;;;;;;;;5053140;28;20433;-71
2023/06/27 08:41:57;;;;;;;14.18;2.08;;;;;;;;;;5050666;28;20683;-71
2023/06/27 08:44:22;;;;;;;18.95;3.03;;;;;;;;;;5051901;28;20024;-71
2023/06/27 08:46:48;;;;;;;13.73;2.20;;;;;;;;;;5050147;28;20032;-71
2023/06/27 08:49:18;;;;;;;10.77;2.97;;;;;;;;;;5051960;28;20731;-71
2023/06/27 08:51:45;;;;;;;17.65;3.00;;;;;;;;;;5051999;28;20025;-71
2023/06/27 08:54:12;;;;;;;16.02;2.80;;;;;;;;;;5049433;28;20103;-71
2023/06/27 08:56:38;;;;;;;20.10;3.72;;;;;;;;;;5049517;28;20028;-71
2023/06/27 08:59:05;;;;;;;10.70;2.08;;;;;;;;;;5049456;28;20029;-71
2023/06/27 09:01:32;;;;;;;7.78;2.05;;;;;;;;;;5047730;28;20016;-71
2023/06/27 09:03:58;;;;;;;13.38;2.83;;;;;;;;;;5048838;28;20021;-71
2023/06/27 09:06:23;;;;;;;16.85;2.47;;;;;;;;;;5040224;28;20390;-70
2023/06/27 09:08:49;;;;;;;13.60;2.70;;;;;;;;;;5050587;28;20036;-71
2023/06/27 09:11:15;;;;;;;8.85;2.10;;;;;;;;;;5048051;28;20158;-71
2023/06/27 09:13:40;;;;;;;11.48;2.90;;;;;;;;;;5050176;28;20375;-71
2023/06/27 09:16:05;;;;;;;11.15;2.20;;;;;;;;;;5050065;28;20047;-71
2023/06/27 09:18:31;;;;;;;15.70;3.00;;;;;;;;;;5051384;28;20032;-72
2023/06/27 09:20:56;;;;;;;12.53;2.87;;;;;;;;;;5049786;28;20033;-71
2023/06/27 09:23:22;;;;;;;18.65;2.75;;;;;;;;;;5052298;28;20342;-71
2023/06/27 09:26:06;;;;;;;14.45;2.40;;;;;;;;;;5047648;28;20455;-71
2023/06/27 09:28:32;;;;;;;12.63;3.20;;;;;;;;;;5049192;28;20099;-71
2023/06/27 09:30:57;;;;;;;11.73;2.33;;;;;;;;;;5050717;28;20498;-71
2023/06/27 09:33:23;;;;;;;12.23;2.53;;;;;;;;;;5049527;28;20037;-71
2023/06/27 09:35:48;;;;;;;14.70;2.38;;;;;;;;;;5050055;28;20017;-71
2023/06/27 09:38:14;;;;;;;7.32;1.83;;;;;;;;;;5046120;28;20070;-71
2023/06/27 09:40:39;;;;;;;13.13;3.03;;;;;;;;;;5046718;28;20128;-71
2023/06/27 09:43:05;;;;;;;13.13;1.70;;;;;;;;;;5049282;28;20075;-71
2023/06/27 09:45:30;;;;;;;8.43;1.73;;;;;;;;;;5050175;28;20313;-71
2023/06/27 09:47:56;;;;;;;14.73;1.77;;;;;;;;;;5048289;28;20028;-71
2023/06/27 09:50:31;;;;;;;11.55;1.88;;;;;;;;;;5051698;28;20262;-71
2023/06/27 09:53:00;;;;;;;7.97;1.88;;;;;;;;;;5044532;28;20025;-71
2023/06/27 09:55:26;;;;;;;6.90;1.45;;;;;;;;;;5047087;28;20024;-70
2023/06/27 09:57:52;;;;;;;5.82;1.38;;;;;;;;;;5047593;28;20028;-72
2023/06/27 10:00:18;;;;;;;8.02;1.38;;;;;;;;;;5048273;28;20075;-71
2023/06/27 10:02:50;;;;;;;14.85;2.67;;;;;;;;;;5047776;28;20029;-71
2023/06/27 10:05:15;;;;;;;7.60;1.48;;;;;;;;;;5044339;28;20025;-71
2023/06/27 10:07:41;;;;;;;13.55;2.08;;;;;;;;;;5050388;28;20474;-71
2023/06/27 10:10:06;;;;;;;7.55;1.58;;;;;;;;;;5050943;28;20017;-71
2023/06/27 10:12:32;;;;;;;5.38;1.50;;;;;;;;;;5048793;28;20016;-71
2023/06/27 10:14:58;;;;;;;14.05;2.20;;;;;;;;;;5048209;28;20410;-71
2023/06/27 10:17:23;;;;;;;9.18;1.73;;;;;;;;;;5050005;28;20053;-71
2023/06/27 10:19:49;;;;;;;8.43;1.88;;;;;;;;;;5049838;28;20047;-71
2023/06/27 10:22:17;;;;;;;4.38;1.88;;;;;;;;;;5050366;28;20132;-71
2023/06/27 10:24:43;;;;;;;7.40;1.65;;;;;;;;;;5048638;28;20100;-72
2023/06/27 10:27:09;;;;;;;9.98;1.45;;;;;;;;;;5045810;28;20021;-72
2023/06/27 10:29:38;;;;;;;6.35;1.55;;;;;;;;;;5046269;28;20464;-72
2023/06/27 10:32:07;;;;;;;14.10;2.45;;;;;;;;;;5047588;28;20020;-71
2023/06/27 10:34:37;;;;;;;11.00;1.92;;;;;;;;;;5046891;28;20476;-71
2023/06/27 10:37:04;;;;;;;10.05;1.67;;;;;;;;;;5045835;28;20021;-72
2023/06/27 10:39:31;;;;;;;10.77;1.38;;;;;;;;;;5044724;28;20021;-71
2023/06/27 10:42:19;;;;;;;5.47;1.27;;;;;;;;;;5046618;28;20047;-71
2023/06/27 10:45:11;;;;;;;4.35;1.23;;;;;;;;;;5041094;28;20033;-71
2023/06/27 10:47:38;;;;;;;4.82;1.10;;;;;;;;;;5045234;28;20390;-72
2023/06/27 10:50:05;;;;;;;4.68;1.38;;;;;;;;;;5049217;28;20029;-72
2023/06/27 10:52:30;;;;;;;6.80;1.42;;;;;;;;;;5047063;28;20028;-72
2023/06/27 10:55:14;;;;;;;10.18;1.85;;;;;;;;;;5042182;28;20032;-71
2023/06/27 10:57:39;;;;;;;8.48;1.73;;;;;;;;;;5045319;28;20013;-72
2023/06/27 11:00:11;;;;;;;15.20;1.60;;;;;;;;;;5047260;28;20031;-71
2023/06/27 11:02:40;;;;;;;3.85;1.17;;;;;;;;;;5044444;28;20017;-72
2023/06/27 11:05:08;;;;;;;3.30;1.38;;;;;;;;;;5045664;28;20039;-71
2023/06/27 11:07:36;;;;;;;7.50;1.60;;;;;;;;;;5048682;28;20108;-72
2023/06/27 11:10:20;;;;;;;11.02;1.67;;;;;;;;;;5045135;28;20024;-71
2023/06/27 11:12:48;;;;;;;12.57;1.42;;;;;;;;;;5044268;28;20025;-71
2023/06/27 11:15:13;;;;;;;8.05;1.55;;;;;;;;;;5047078;28;20490;-72
2023/06/27 11:17:39;;;;;;;13.95;2.35;;;;;;;;;;5046197;28;20052;-72
2023/06/27 11:20:06;;;;;;;8.63;1.75;;;;;;;;;;5047741;28;20067;-71
2023/06/27 11:22:31;;;;;;;6.80;1.58;;;;;;;;;;5046045;28;20070;-71
2023/06/27 11:24:58;;;;;;;10.30;1.70;;;;;;;;;;5046392;28;20021;-72
2023/06/27 11:27:28;;;;;;;3.58;1.00;;;;;;;;;;5039534;28;20035;-71
2023/06/27 11:29:56;;;;;;;5.43;1.52;;;;;;;;;;5045179;28;20029;-72
2023/06/27 11:32:23;;;;;;;10.57;1.95;;;;;;;;;;5042078;28;20163;-71
2023/06/27 11:34:49;;;;;;;5.55;1.30;;;;;;;;;;5046571;28;20235;-72
2023/06/27 11:37:14;;;;;;;6.83;1.13;;;;;;;;;;5047635;28;20521;-72
2023/06/27 11:39:39;;;;;;;7.00;1.50;;;;;;;;;;5048111;28;20843;-72
2023/06/27 11:42:05;;;;;;;5.63;1.70;;;;;;;;;;5044591;28;20036;-70
2023/06/27 11:44:31;;;;;;;13.68;2.30;;;;;;;;;;5045200;28;20625;-71
2023/06/27 11:46:57;;;;;;;8.07;1.70;;;;;;;;;;5046188;28;20062;-72
2023/06/27 11:49:23;;;;;;;7.28;1.90;;;;;;;;;;5047456;28;20028;-71
2023/06/27 11:51:48;;;;;;;6.15;1.38;;;;;;;;;;5047666;28;20025;-72
2023/06/27 11:54:17;;;;;;;7.10;1.77;;;;;;;;;;5046983;28;20047;-71
2023/06/27 11:56:43;;;;;;;6.25;1.55;;;;;;;;;;5045413;28;20709;-71
2023/06/27 11:59:08;;;;;;;7.47;1.60;;;;;;;;;;5045568;28;20107;-72
2023/06/27 12:01:44;;;;;;;7.95;1.42;;;;;;;;;;5046923;28;20013;-72
2023/06/27 12:04:14;;;;;;;13.77;3.40;;;;;;;;;;5045985;28;20021;-72
2023/06/27 12:06:39;;;;;;;6.97;1.90;;;;;;;;;;5044369;28;20382;-71
2023/06/27 12:09:06;;;;;;;13.02;2.50;;;;;;;;;;5046349;28;20086;-72
2023/06/27 12:11:35;;;;;;;7.80;1.88;;;;;;;;;;5045419;28;20135;-72
2023/06/27 12:14:01;;;;;;;7.17;1.57;;;;;;;;;;5048037;28;20100;-72
2023/06/27 12:16:29;;;;;;;10.68;1.90;;;;;;;;;;5046859;28;20104;-72
2023/06/27 12:19:04;;;;;;;9.65;1.88;;;;;;;;;;5046836;28;20473;-72
2023/06/27 12:21:29;;;;;;;6.55;1.20;;;;;;;;;;5045154;28;20040;-72
2023/06/27 12:23:54;;;;;;;9.45;1.98;;;;;;;;;;5046346;28;20466;-72
2023/06/27 12:26:19;;;;;;;6.07;1.50;;;;;;;;;;5045216;28;20051;-72
2023/06/27 12:28:54;;;;;;;13.70;1.63;;;;;;;;;;5047203;28;20268;-72
2023/06/27 12:31:20;;;;;;;6.88;1.52;;;;;;;;;;5045817;28;20047;-72
2023/06/27 12:33:46;;;;;;;4.87;1.73;;;;;;;;;;5046398;28;20052;-72
2023/06/27 12:36:11;;;;;;;9.70;1.80;;;;;;;;;;5046872;28;20017;-72
2023/06/27 12:38:36;;;;;;;15.77;2.00;;;;;;;;;;5047349;28;20405;-72
2023/06/27 12:41:01;;;;;;;10.03;1.87;;;;;;;;;;5049747;28;20756;-72
2023/06/27 12:43:26;;;;;;;6.83;1.80;;;;;;;;;;5049490;28;20643;-72
2023/06/27 12:46:01;;;;;;;6.77;1.90;;;;;;;;;;5050512;28;20108;-72
2023/06/27 12:48:27;;;;;;;6.50;1.70;;;;;;;;;;5049778;28;20032;-73
2023/06/27 12:50:52;;;;;;;7.20;2.13;;;;;;;;;;5050340;28;20017;-71
2023/06/27 12:53:18;;;;;;;9.87;2.10;;;;;;;;;;5050624;28;20469;-72
2023/06/27 12:55:43;;;;;;;7.00;1.75;;;;;;;;;;5049198;28;20263;-72
2023/06/27 12:58:08;;;;;;;5.43;1.43;;;;;;;;;;5049074;28;20024;-72
2023/06/27 13:00:37;;;;;;;11.35;1.90;;;;;;;;;;5050665;28;20306;-72
2023/06/27 13:03:02;;;;;;;10.48;1.80;;;;;;;;;;5049287;28;20032;-72
2023/06/27 13:05:27;;;;;;;6.63;1.38;;;;;;;;;;5049354;28;20013;-72
2023/06/27 13:07:52;;;;;;;5.53;1.63;;;;;;;;;;5050386;28;20021;-72
2023/06/27 13:10:18;;;;;;;11.40;1.70;;;;;;;;;;5048552;28;20094;-72
2023/06/27 13:12:43;;;;;;;6.45;1.92;;;;;;;;;;5046175;28;20081;-72
2023/06/27 13:15:08;;;;;;;11.27;1.50;;;;;;;;;;5049165;28;20043;-72
2023/06/27 13:17:34;;;;;;;7.32;1.42;;;;;;;;;;5048932;28;20028;-72
2023/06/27 13:19:59;;;;;;;4.90;1.23;;;;;;;;;;5049044;28;20074;-71
2023/06/27 13:22:25;;;;;;;9.43;1.47;;;;;;;;;;5050026;28;20745;-72
2023/06/27 13:24:50;;;;;;;10.15;1.83;;;;;;;;;;5048375;28;20024;-72
2023/06/27 13:27:17;;;;;;;11.70;2.50;;;;;;;;;;5047672;28;20063;-72
2023/06/27 13:29:42;;;;;;;4.57;1.52;;;;;;;;;;5046337;28;20496;-72
2023/06/27 13:32:08;;;;;;;6.97;1.80;;;;;;;;;;5048139;28;20037;-72
2023/06/27 13:34:33;;;;;;;11.73;2.20;;;;;;;;;;5048307;28;20275;-72
2023/06/27 13:36:59;;;;;;;9.33;1.60;;;;;;;;;;5047826;28;20056;-72
2023/06/27 13:39:24;;;;;;;13.50;2.22;;;;;;;;;;5048231;28;20326;-72
2023/06/27 13:41:49;;;;;;;10.73;1.80;;;;;;;;;;5048523;28;20076;-72
2023/06/27 13:44:14;;;;;;;6.13;2.10;;;;;;;;;;5047658;28;20025;-72
2023/06/27 13:46:39;;;;;;;8.10;2.17;;;;;;;;;;5049163;28;20028;-72
2023/06/27 13:49:08;;;;;;;6.27;1.80;;;;;;;;;;5049245;28;20021;-72
2023/06/27 13:51:34;;;;;;;10.52;2.25;;;;;;;;;;5048667;28;20274;-72
2023/06/27 13:53:59;;;;;;;6.97;2.10;;;;;;;;;;5048373;28;20017;-72
2023/06/27 13:56:24;;;;;;;10.23;2.00;;;;;;;;;;5046472;28;20033;-72
2023/06/27 13:58:49;;;;;;;8.33;2.17;;;;;;;;;;5049245;28;20017;-72
2023/06/27 14:01:14;;;;;;;9.10;1.87;;;;;;;;;;5047776;28;20291;-72
2023/06/27 14:03:40;;;;;;;15.67;2.37;;;;;;;;;;5047928;28;20928;-72
2023/06/27 14:06:05;;;;;;;8.30;1.87;;;;;;;;;;5048351;28;20302;-72
2023/06/27 14:08:30;;;;;;;6.97;1.73;;;;;;;;;;5047426;28;20020;-72
2023/06/27 14:10:55;;;;;;;7.10;2.13;;;;;;;;;;5048429;28;21452;-72
2023/06/27 14:13:20;;;;;;;8.68;2.17;;;;;;;;;;5047873;28;20294;-72
2023/06/27 14:15:46;;;;;;;13.07;2.33;;;;;;;;;;5047260;28;20020;-72
2023/06/27 14:18:11;;;;;;;11.35;2.75;;;;;;;;;;5045509;28;20021;-72
2023/06/27 14:20:36;;;;;;;6.07;1.73;;;;;;;;;;5042251;28;20051;-72
2023/06/27 14:23:04;;;;;;;4.55;2.10;;;;;;;;;;5047391;28;20104;-72
2023/06/27 14:25:29;;;;;;;8.27;2.10;;;;;;;;;;5046865;28;20065;-72
2023/06/27 14:27:55;;;;;;;9.82;2.58;;;;;;;;;;5048463;28;20040;-72
2023/06/27 14:30:20;;;;;;;8.05;1.83;;;;;;;;;;5045916;28;20021;-72
2023/06/27 14:32:46;;;;;;;9.10;2.10;;;;;;;;;;5044583;28;20021;-72